Time;durP1;ratioP1;P1;durP2;ratioP2;P2;SDS_P1;SDS_P2;PMS_P1;PMS_P2;Temp;Humidity;BMP_temperature;BMP_pressure;BME280_temperature;BME280_humidity;BME280_pressure;Samples;Min_cycle;Max_cycle;Signal;HPM_P1;HPM_P2
2023/05/23 00:01:44;;;;;;;;;;;;;;;22.70;32.42;97465.31;5000327;28;991;-78
2023/05/23 00:04:15;;;;;;;;;;;;;;;22.58;33.32;97464.13;5016176;28;1052;-78
2023/05/23 00:06:45;;;;;;;;;;;;;;;22.69;33.15;97455.22;5001009;28;1000;-78
2023/05/23 00:09:13;;;;;;;;;;;;;;;22.43;33.05;97467.97;5019110;28;1119;-78
2023/05/23 00:11:43;;;;;;;;;;;;;;;22.14;33.33;97469.06;5004179;28;1902;-78
2023/05/23 00:14:10;;;;;;;;;;;;;;;21.95;33.41;97473.78;5019917;28;1034;-78
2023/05/23 00:16:40;;;;;;;;;;;;;;;22.00;33.12;97475.22;5003940;28;1218;-78
2023/05/23 00:19:05;;;;;;;;;;;;;;;21.82;33.29;97479.50;5019647;28;893;-78
2023/05/23 00:21:31;;;;;;;;;;;;;;;21.79;33.41;97471.91;5020533;28;1028;-78
2023/05/23 00:23:57;;;;;;;;;;;;;;;21.70;33.38;97471.81;5019712;28;1110;-78
2023/05/23 00:26:24;;;;;;;;;;;;;;;21.99;32.79;97462.31;5003661;28;1045;-78
2023/05/23 00:28:50;;;;;;;;;;;;;;;21.77;33.12;97465.94;4986428;28;1056;-78
2023/05/23 00:31:16;;;;;;;;;;;;;;;21.88;32.48;97467.59;5005793;28;1985;-78
2023/05/23 00:33:42;;;;;;;;;;;;;;;21.64;33.17;97470.84;4986584;28;1119;-78
2023/05/23 00:36:07;;;;;;;;;;;;;;;21.77;32.54;97463.09;4989106;28;1338;-78
2023/05/23 00:38:33;;;;;;;;;;;;;;;21.84;32.33;97467.72;4969863;28;1104;-78
2023/05/23 00:40:59;;;;;;;;;;;;;;;21.76;32.38;97455.03;5005267;28;1249;-77
2023/05/23 00:43:25;;;;;;;;;;;;;;;21.64;32.82;97462.34;5025393;28;1049;-77
2023/05/23 00:45:50;;;;;;;;;;;;;;;21.57;32.76;97465.44;5027653;28;1148;-77
2023/05/23 00:48:16;;;;;;;;;;;;;;;21.76;32.18;97455.84;5025795;28;967;-78
2023/05/23 00:50:41;;;;;;;;;;;;;;;21.62;32.44;97455.56;5027329;28;1887;-77
2023/05/23 00:53:07;;;;;;;;;;;;;;;21.67;32.03;97452.94;5026488;28;961;-78
2023/05/23 00:55:32;;;;;;;;;;;;;;;21.75;32.31;97448.59;5026676;28;1222;-78
2023/05/23 00:57:58;;;;;;;;;;;;;;;21.75;32.20;97454.25;5009861;28;1130;-78
2023/05/23 01:00:23;;;;;;;;;;;;;;;21.81;31.94;97446.78;5026209;28;1265;-78
2023/05/23 01:02:52;;;;;;;;;;;;;;;22.10;31.61;97440.84;5003160;28;1130;-78
2023/05/23 01:05:17;;;;;;;;;;;;;;;21.79;31.92;97446.44;4971095;28;1349;-77
2023/05/23 01:07:44;;;;;;;;;;;;;;;21.62;32.11;97439.38;4945239;29;1224;-78
2023/05/23 01:10:10;;;;;;;;;;;;;;;21.67;32.16;97452.16;4932700;28;1067;-78
2023/05/23 01:12:35;;;;;;;;;;;;;;;21.72;31.79;97443.84;4984213;28;1914;-78
2023/05/23 01:15:03;;;;;;;;;;;;;;;21.64;32.04;97442.53;4983223;28;1010;-78
2023/05/23 01:17:49;;;;;;;;;;;;;;;21.81;31.77;97452.44;4968247;28;1066;-78
2023/05/23 01:20:35;;;;;;;;;;;;;;;22.28;32.70;97447.91;4967132;28;1107;-78
2023/05/23 01:23:10;;;;;;;;;;;;;;;22.36;33.40;97435.03;4963367;28;1270;-77
2023/05/23 01:25:49;;;;;;;;;;;;;;;22.21;34.08;97446.13;4948951;29;1082;-77
2023/05/23 01:28:18;;;;;;;;;;;;;;;22.26;33.67;97445.53;4962889;29;1049;-78
2023/05/23 01:30:44;;;;;;;;;;;;;;;21.89;34.07;97449.34;4964497;29;1910;-78
2023/05/23 01:33:11;;;;;;;;;;;;;;;22.11;33.41;97450.16;4972579;28;1018;-78
2023/05/23 01:35:37;;;;;;;;;;;;;;;22.00;33.23;97449.72;4971358;28;1136;-77
2023/05/23 01:38:02;;;;;;;;;;;;;;;21.97;32.79;97448.63;4979227;28;952;-78
2023/05/23 01:40:28;;;;;;;;;;;;;;;21.76;33.02;97450.19;5042847;28;1006;-78
2023/05/23 01:42:54;;;;;;;;;;;;;;;21.72;33.24;97460.84;5040817;28;1262;-78
2023/05/23 01:45:20;;;;;;;;;;;;;;;21.70;33.08;97452.00;5042300;28;918;-79
2023/05/23 01:47:46;;;;;;;;;;;;;;;21.55;33.29;97456.59;5042036;28;1074;-78
2023/05/23 01:50:12;;;;;;;;;;;;;;;21.52;33.28;97458.31;5058890;28;1009;-78
2023/05/23 01:52:38;;;;;;;;;;;;;;;21.72;32.74;97455.19;5058745;28;1913;-78
2023/05/23 01:55:08;;;;;;;;;;;;;;;21.85;32.41;97458.75;5024945;28;1094;-78
2023/05/23 01:57:34;;;;;;;;;;;;;;;21.77;32.54;97451.78;5057841;28;1247;-78
2023/05/23 02:00:00;;;;;;;;;;;;;;;21.70;32.76;97451.22;5023378;28;1151;-78
2023/05/23 02:02:26;;;;;;;;;;;;;;;21.61;32.57;97451.94;5046528;28;1163;-78
2023/05/23 02:04:52;;;;;;;;;;;;;;;21.70;32.40;97452.00;5027938;28;1340;-78
2023/05/23 02:07:21;;;;;;;;;;;;;;;21.91;32.03;97460.97;5029742;28;1321;-78
2023/05/23 02:09:47;;;;;;;;;;;;;;;22.01;31.89;97465.47;5028593;28;1170;-78
2023/05/23 02:12:13;;;;;;;;;;;;;;;21.77;32.17;97451.78;5046084;28;1918;-78
2023/05/23 02:14:40;;;;;;;;;;;;;;;21.77;32.27;97456.66;5060188;28;972;-77
2023/05/23 02:17:08;;;;;;;;;;;;;;;21.78;32.11;97464.66;5029601;28;1193;-78
2023/05/23 02:19:34;;;;;;;;;;;;;;;21.68;32.06;97457.34;5027792;28;1147;-78
2023/05/23 02:22:00;;;;;;;;;;;;;;;21.76;32.30;97455.03;5061743;28;969;-78
2023/05/23 02:24:25;;;;;;;;;;;;;;;21.74;32.21;97451.88;5043527;28;1245;-77
2023/05/23 02:26:51;;;;;;;;;;;;;;;21.77;31.95;97451.78;5005597;28;1148;-77
2023/05/23 02:29:17;;;;;;;;;;;;;;;21.64;32.16;97456.69;5004828;28;1048;-78
2023/05/23 02:31:42;;;;;;;;;;;;;;;21.64;31.85;97468.00;5021955;28;1962;-78
2023/05/23 02:34:08;;;;;;;;;;;;;;;21.58;32.21;97467.00;5004186;28;911;-79
2023/05/23 02:36:35;;;;;;;;;;;;;;;21.75;31.84;97476.13;5009305;28;1191;-77
2023/05/23 02:39:04;;;;;;;;;;;;;;;22.40;31.71;97474.59;5040578;28;1273;-78
2023/05/23 02:41:30;;;;;;;;;;;;;;;22.70;32.33;97470.97;5008889;28;1191;-78
2023/05/23 02:43:56;;;;;;;;;;;;;;;22.51;33.26;97474.97;5040474;28;1316;-78
2023/05/23 02:46:22;;;;;;;;;;;;;;;22.31;33.64;97478.94;5042274;28;1142;-78
2023/05/23 02:48:48;;;;;;;;;;;;;;;22.05;33.56;97477.47;5039782;28;1222;-77
2023/05/23 02:51:13;;;;;;;;;;;;;;;22.04;33.40;97481.56;5042237;28;1944;-78
2023/05/23 02:53:39;;;;;;;;;;;;;;;21.65;33.71;97480.91;5039259;28;1082;-78
2023/05/23 02:56:06;;;;;;;;;;;;;;;21.95;33.03;97479.44;5041657;28;1292;-78
2023/05/23 02:58:34;;;;;;;;;;;;;;;21.82;33.02;97471.00;5071770;28;1564;-78
2023/05/23 03:01:03;;;;;;;;;;;;;;;21.92;32.92;97473.91;5049957;28;1106;-78
2023/05/23 03:03:30;;;;;;;;;;;;;;;21.85;32.93;97472.91;5063980;28;1408;-78
2023/05/23 03:05:56;;;;;;;;;;;;;;;21.77;33.01;97474.44;5084538;28;898;-79
2023/05/23 03:08:22;;;;;;;;;;;;;;;21.56;33.23;97466.69;5047546;28;1301;-78
2023/05/23 03:10:49;;;;;;;;;;;;;;;21.89;32.53;97463.50;5082139;28;1926;-78
2023/05/23 03:13:15;;;;;;;;;;;;;;;21.99;32.41;97462.31;5031748;28;1203;-78
2023/05/23 03:15:41;;;;;;;;;;;;;;;21.74;32.75;97458.34;5065373;28;1141;-78
2023/05/23 03:18:06;;;;;;;;;;;;;;;21.56;32.80;97458.19;5048070;28;1151;-78
2023/05/23 03:20:32;;;;;;;;;;;;;;;21.65;32.66;97461.09;5048828;28;1155;-78
2023/05/23 03:22:57;;;;;;;;;;;;;;;21.67;32.62;97458.59;5048102;28;1173;-78
2023/05/23 03:25:23;;;;;;;;;;;;;;;21.72;32.41;97463.69;5065034;28;1267;-78
2023/05/23 03:27:49;;;;;;;;;;;;;;;21.71;32.50;97462.09;5064679;28;894;-78
2023/05/23 03:30:14;;;;;;;;;;;;;;;21.72;32.40;97460.84;5047467;28;1142;-78
2023/05/23 03:32:41;;;;;;;;;;;;;;;21.73;32.42;97464.47;5047649;28;1902;-78
2023/05/23 03:35:06;;;;;;;;;;;;;;;21.63;32.71;97463.59;5064115;28;958;-78
2023/05/23 03:37:32;;;;;;;;;;;;;;;21.62;32.50;97467.69;5065072;28;1288;-79
2023/05/23 03:39:58;;;;;;;;;;;;;;;21.69;32.36;97475.91;5047059;28;1227;-79
2023/05/23 03:42:23;;;;;;;;;;;;;;;21.90;32.08;97482.06;5048640;28;1070;-79
2023/05/23 03:44:49;;;;;;;;;;;;;;;21.54;31.86;97440.84;5063802;28;923;-79
2023/05/23 03:47:14;;;;;;;;;;;;;;;21.93;31.97;97475.50;5048512;28;1210;-79
2023/05/23 03:49:43;;;;;;;;;;;;;;;21.75;32.17;97470.44;5063271;28;1563;-79
2023/05/23 03:52:10;;;;;;;;;;;;;;;21.81;32.02;97486.41;5020245;28;1918;-79
2023/05/23 03:54:36;;;;;;;;;;;;;;;21.96;31.55;97485.88;5036058;28;1298;-79
2023/05/23 03:57:01;;;;;;;;;;;;;;;21.70;32.02;97477.50;5004196;28;1223;-78
2023/05/23 03:59:28;;;;;;;;;;;;;;;22.19;32.46;97488.31;4987055;28;1270;-79
2023/05/23 04:01:55;;;;;;;;;;;;;;;22.55;32.70;97493.44;5020971;28;1103;-79
2023/05/23 04:04:20;;;;;;;;;;;;;;;22.77;32.97;97487.69;5019519;28;988;-79
2023/05/23 04:06:46;;;;;;;;;;;;;;;22.59;33.87;97493.28;5023843;28;1345;-79
2023/05/23 04:09:13;;;;;;;;;;;;;;;22.17;33.97;97496.47;5023639;28;1294;-79
2023/05/23 04:11:41;;;;;;;;;;;;;;;22.00;33.72;97497.88;5040816;28;1989;-80
2023/05/23 04:14:07;;;;;;;;;;;;;;;21.98;33.42;97494.72;4990669;28;1235;-79
2023/05/23 04:16:34;;;;;;;;;;;;;;;21.89;33.55;97491.81;5024674;28;1042;-79
2023/05/23 04:19:04;;;;;;;;;;;;;;;21.90;33.40;97494.19;5023181;28;968;-77
2023/05/23 04:21:30;;;;;;;;;;;;;;;21.77;33.33;97491.41;5008860;28;1153;-77
2023/05/23 04:24:07;;;;;;;;;;;;;;;21.75;33.34;97490.28;5025168;28;1243;-77
2023/05/23 04:26:35;;;;;;;;;;;;;;;21.75;33.04;97488.22;5044152;28;1245;-77
2023/05/23 04:29:04;;;;;;;;;;;;;;;21.94;32.63;97494.06;5060014;28;1410;-77
2023/05/23 04:31:32;;;;;;;;;;;;;;;22.00;32.58;97492.22;5077063;28;1894;-77
2023/05/23 04:33:59;;;;;;;;;;;;;;;21.91;32.82;97495.75;5042867;28;1316;-77
2023/05/23 04:36:25;;;;;;;;;;;;;;;21.84;32.51;97499.66;5043897;28;1268;-77
2023/05/23 04:38:53;;;;;;;;;;;;;;;21.70;32.74;97497.31;5042465;28;1106;-77
2023/05/23 04:41:22;;;;;;;;;;;;;;;21.97;32.32;97498.81;5060607;28;1198;-77
2023/05/23 04:43:53;;;;;;;;;;;;;;;21.84;32.56;97513.81;5042436;28;938;-77
2023/05/23 04:46:25;;;;;;;;;;;;;;;21.91;32.67;97509.91;5075167;28;1123;-77
2023/05/23 04:49:04;;;;;;;;;;;;;;;21.79;32.70;97522.88;5041035;28;1194;-77
2023/05/23 04:51:29;;;;;;;;;;;;;;;21.74;32.48;97520.63;5043195;28;1968;-77
2023/05/23 04:54:02;;;;;;;;;;;;;;;21.77;32.71;97525.41;5045619;28;996;-77
2023/05/23 04:56:28;;;;;;;;;;;;;;;21.63;32.66;97528.72;5026812;28;1142;-78
2023/05/23 04:58:53;;;;;;;;;;;;;;;21.90;32.22;97525.34;5042646;28;1223;-78
2023/05/23 05:01:19;;;;;;;;;;;;;;;21.63;32.66;97530.75;5020367;28;1280;-79
2023/05/23 05:03:46;;;;;;;;;;;;;;;21.76;32.39;97526.66;5002407;28;1265;-79
2023/05/23 05:06:12;;;;;;;;;;;;;;;21.69;32.47;97534.59;4956268;28;1140;-80
2023/05/23 05:08:39;;;;;;;;;;;;;;;21.71;32.52;97532.91;4985933;28;1132;-79
2023/05/23 05:11:05;;;;;;;;;;;;;;;21.61;32.77;97539.72;4972325;28;2042;-79
2023/05/23 05:13:31;;;;;;;;;;;;;;;21.55;32.68;97536.66;4970049;28;1169;-79
2023/05/23 05:15:57;;;;;;;;;;;;;;;21.57;32.51;97536.22;4988326;28;1327;-79
2023/05/23 05:18:27;;;;;;;;;;;;;;;21.88;32.07;97532.72;5002226;28;1101;-78
2023/05/23 05:20:55;;;;;;;;;;;;;;;21.74;32.35;97543.28;4988521;28;1605;-79
2023/05/23 05:23:27;;;;;;;;;;;;;;;21.65;32.55;97542.41;4985809;28;1098;-79
2023/05/23 05:25:55;;;;;;;;;;;;;;;21.61;32.24;97539.72;4971915;28;1370;-79
2023/05/23 05:28:20;;;;;;;;;;;;;;;21.77;32.06;97545.22;5003333;28;1255;-79
2023/05/23 05:30:52;;;;;;;;;;;;;;;21.72;32.19;97548.63;5026494;28;1906;-79
2023/05/23 05:33:23;;;;;;;;;;;;;;;21.76;32.34;97540.00;5009202;28;1135;-79
2023/05/23 05:35:54;;;;;;;;;;;;;;;21.69;32.28;97546.69;5036250;28;1326;-79
2023/05/23 05:38:20;;;;;;;;;;;;;;;21.81;31.87;97554.38;5032564;28;1548;-79
2023/05/23 05:40:46;;;;;;;;;;;;;;;21.91;31.93;97545.97;5067614;28;1071;-79
2023/05/23 05:43:11;;;;;;;;;;;;;;;21.69;32.20;97552.38;5049052;28;1100;-79
2023/05/23 05:45:38;;;;;;;;;;;;;;;21.74;32.08;97554.63;5061958;28;1291;-79
2023/05/23 05:48:05;;;;;;;;;;;;;;;21.81;31.82;97554.38;5028082;28;1226;-79
2023/05/23 05:50:31;;;;;;;;;;;;;;;22.24;32.00;97558.56;5006255;28;1949;-80
2023/05/23 05:52:56;;;;;;;;;;;;;;;22.80;31.97;97565.41;5005855;28;1333;-79
2023/05/23 05:55:22;;;;;;;;;;;;;;;22.62;33.23;97557.56;5025049;28;1115;-79
2023/05/23 05:57:52;;;;;;;;;;;;;;;22.75;33.58;97558.28;5042130;28;1099;-79
2023/05/23 06:00:18;;;;;;;;;;;;;;;22.43;34.11;97558.69;5025319;28;1116;-79
2023/05/23 06:02:56;;;;;;;;;;;;;;;22.12;34.22;97553.72;5026899;28;1090;-79
2023/05/23 06:05:44;;;;;;;;;;;;;;;22.00;34.31;97565.88;4989690;28;1116;-79
2023/05/23 06:08:10;;;;;;;;;;;;;;;21.74;34.38;97563.13;4981763;28;1458;-79
2023/05/23 06:10:38;;;;;;;;;;;;;;;21.71;34.26;97555.53;4966263;28;1887;-79
2023/05/23 06:13:04;;;;;;;;;;;;;;;21.96;33.64;97559.53;4966176;28;1256;-79
2023/05/23 06:15:32;;;;;;;;;;;;;;;22.14;32.72;97542.75;4967326;28;1226;-79
2023/05/23 06:17:57;;;;;;;;;;;;;;;22.11;33.08;97560.66;4982014;28;939;-78
2023/05/23 06:20:24;;;;;;;;;;;;;;;21.83;33.53;97566.03;4983174;28;1234;-79
2023/05/23 06:22:50;;;;;;;;;;;;;;;21.87;32.96;97556.66;4985512;28;1277;-79
2023/05/23 06:25:16;;;;;;;;;;;;;;;21.89;33.09;97560.59;4986103;28;1190;-79
2023/05/23 06:27:45;;;;;;;;;;;;;;;21.93;32.73;97563.31;5020850;28;1412;-79
2023/05/23 06:30:11;;;;;;;;;;;;;;;21.92;32.91;97564.56;5004808;28;1198;-79
2023/05/23 06:32:37;;;;;;;;;;;;;;;21.85;32.88;97566.38;5005159;28;1950;-79
2023/05/23 06:35:02;;;;;;;;;;;;;;;21.82;32.89;97572.97;4965162;28;1147;-79
2023/05/23 06:37:28;;;;;;;;;;;;;;;21.92;32.55;97570.22;4963999;29;1083;-79
2023/05/23 06:39:55;;;;;;;;;;;;;;;22.08;32.19;97570.84;4962334;28;1086;-79
2023/05/23 06:42:21;;;;;;;;;;;;;;;22.14;32.05;97565.41;4972139;28;1277;-79
2023/05/23 06:45:03;;;;;;;;;;;;;;;22.12;32.22;97567.91;4962080;29;1200;-79
2023/05/23 06:47:30;;;;;;;;;;;;;;;22.09;32.17;97580.91;4979155;28;1090;-78
2023/05/23 06:49:56;;;;;;;;;;;;;;;21.88;32.07;97572.38;4961756;29;1220;-78
2023/05/23 06:52:22;;;;;;;;;;;;;;;21.83;32.44;97573.75;4978912;28;1914;-79
2023/05/23 06:54:48;;;;;;;;;;;;;;;21.82;32.24;97570.13;4962121;29;1183;-79
2023/05/23 06:57:13;;;;;;;;;;;;;;;22.00;31.88;97568.72;4963026;29;1440;-79
2023/05/23 06:59:39;;;;;;;;;;;;;;;21.66;32.57;97564.63;4974587;28;1200;-79
2023/05/23 07:02:04;;;;;;;;;;;;;;;21.73;32.42;97570.03;4959682;29;937;-79
2023/05/23 07:04:30;;;;;;;;;;;;;;;21.66;32.44;97567.44;4957906;28;1510;-79
2023/05/23 07:07:01;;;;;;;;;;;;;;;21.74;32.21;97557.44;4958495;28;1413;-79
2023/05/23 07:09:27;;;;;;;;;;;;;;;21.85;31.95;97549.38;5009782;28;1094;-79
2023/05/23 07:12:03;;;;;;;;;;;;;;;21.88;32.13;97558.22;4998364;28;1910;-79
2023/05/23 07:14:28;;;;;;;;;;;;;;;21.88;31.99;97561.06;4996367;28;1171;-78
2023/05/23 07:16:54;;;;;;;;;;;;;;;21.91;31.76;97558.06;4998114;28;1188;-79
2023/05/23 07:19:20;;;;;;;;;;;;;;;21.57;32.54;97556.03;5006066;28;1115;-78
2023/05/23 07:21:49;;;;;;;;;;;;;;;21.91;31.85;97546.75;5019578;28;1118;-79
2023/05/23 07:24:17;;;;;;;;;;;;;;;21.81;31.90;97554.38;5035126;28;1114;-79
2023/05/23 07:26:42;;;;;;;;;;;;;;;21.89;31.87;97560.59;5036362;28;1000;-79
2023/05/23 07:29:08;;;;;;;;;;;;;;;21.84;32.02;97559.13;5018763;28;1232;-79
2023/05/23 07:31:35;;;;;;;;;;;;;;;21.94;31.51;97559.22;5022860;28;1957;-79
2023/05/23 07:34:00;;;;;;;;;;;;;;;21.70;32.08;97558.81;5041679;28;1226;-79
2023/05/23 07:36:34;;;;;;;;;;;;;;;21.57;32.20;97556.03;5059767;28;1182;-78
2023/05/23 07:39:00;;;;;;;;;;;;;;;21.75;32.11;97550.53;5041490;28;1419;-79
2023/05/23 07:41:26;;;;;;;;;;;;;;;22.01;31.38;97558.97;5042909;28;1146;-79
2023/05/23 07:43:52;;;;;;;;;;;;;;;22.12;31.17;97562.22;5025365;28;1139;-79
2023/05/23 07:46:17;;;;;;;;;;;;;;;21.83;31.86;97563.22;5059434;28;1134;-79
2023/05/23 07:48:43;;;;;;;;;;;;;;;21.78;31.95;97563.78;5024310;28;1249;-78
2023/05/23 07:51:11;;;;;;;;;;;;;;;21.91;31.76;97568.63;5043172;28;1957;-79
2023/05/23 07:53:38;;;;;;;;;;;;;;;21.67;32.21;97560.53;5040573;28;1154;-78
2023/05/23 07:56:07;;;;;;;;;;;;;;;21.95;31.84;97563.63;5022657;28;1246;-79
2023/05/23 07:58:36;;;;;;;;;;;;;;;22.09;31.31;97565.97;5020712;28;1113;-79
2023/05/23 08:01:02;;;;;;;;;;;;;;;21.73;31.84;97564.38;5023175;28;1240;-79
2023/05/23 08:03:55;;;;;;;;;;;;;;;21.70;32.21;97570.16;5020683;28;1272;-79
2023/05/23 08:06:30;;;;;;;;;;;;;;;21.70;31.99;97565.28;5022533;28;1565;-79
2023/05/23 08:08:59;;;;;;;;;;;;;;;21.93;31.51;97566.13;5005860;28;1048;-79
2023/05/23 08:11:27;;;;;;;;;;;;;;;21.91;31.24;97574.28;5022443;28;1910;-80
2023/05/23 08:13:53;;;;;;;;;;;;;;;21.79;31.57;97568.19;5021506;28;972;-78
2023/05/23 08:16:45;;;;;;;;;;;;;;;21.71;31.87;97566.06;5055451;28;1422;-79
2023/05/23 08:19:16;;;;;;;;;;;;;;;21.84;31.72;97564.78;5037789;28;1240;-79
2023/05/23 08:21:42;;;;;;;;;;;;;;;21.90;31.36;97550.84;5007092;28;1071;-79
2023/05/23 08:24:08;;;;;;;;;;;;;;;21.85;31.52;97555.03;5007874;28;1331056;-78
2023/05/23 08:26:36;;;;;;;;;;;;;;;21.75;31.76;97550.53;5023104;28;1283;-79
2023/05/23 08:29:04;;;;;;;;;;;;;;;21.79;31.74;97551.22;5019391;28;1357;-79
2023/05/23 08:31:30;;;;;;;;;;;;;;;21.84;31.54;97542.13;5020850;28;1882;-79
2023/05/23 08:33:56;;;;;;;;;;;;;;;21.81;31.90;97534.56;5063071;28;1214;-79
2023/05/23 08:36:22;;;;;;;;;;;;;;;21.54;32.26;97542.78;5048039;28;1223;-79
2023/05/23 08:38:48;;;;;;;;;;;;;;;21.74;31.84;97531.19;5021654;28;1273;-79
2023/05/23 08:41:21;;;;;;;;;;;;;;;21.79;31.69;97545.53;5044143;28;1190;-79
2023/05/23 08:43:49;;;;;;;;;;;;;;;21.98;31.53;97545.72;5074431;28;1438;-79
2023/05/23 08:46:21;;;;;;;;;;;;;;;22.41;32.03;97547.81;5042835;28;1003;-79
2023/05/23 08:48:50;;;;;;;;;;;;;;;22.60;32.95;97551.59;5008411;28;1162;-79
2023/05/23 08:51:16;;;;;;;;;;;;;;;22.55;33.73;97552.97;5077419;28;1905;-79
2023/05/23 08:53:45;;;;;;;;;;;;;;;22.74;33.41;97548.22;5045185;28;1305;-79
2023/05/23 08:56:11;;;;;;;;;;;;;;;22.28;33.81;97558.44;5080482;28;1328;-79
2023/05/23 08:58:43;;;;;;;;;;;;;;;22.16;33.83;97551.56;5078367;28;1095;-79
2023/05/23 09:01:09;;;;;;;;;;;;;;;22.30;32.71;97562.38;5014498;28;1310;-79
2023/05/23 09:03:38;;;;;;;;;;;;;;;21.78;33.39;97521.31;5061511;28;1292;-79
2023/05/23 09:06:10;;;;;;;;;;;;;;;21.95;32.99;97560.78;5047411;28;1302;-79
2023/05/23 09:08:37;;;;;;;;;;;;;;;21.89;32.94;97565.47;5045081;28;1210;-79
2023/05/23 09:11:03;;;;;;;;;;;;;;;22.10;32.56;97553.38;5064014;28;1989;-79
2023/05/23 09:13:30;;;;;;;;;;;;;;;21.90;32.75;97558.53;5045970;28;1079;-79
2023/05/23 09:15:58;;;;;;;;;;;;;;;21.87;32.89;97560.25;5048490;28;1579;-79
2023/05/23 09:18:26;;;;;;;;;;;;;;;21.70;33.15;97564.47;5045625;28;1223;-79
2023/05/23 09:20:52;;;;;;;;;;;;;;;21.83;32.81;97560.38;5081313;28;1057;-78
2023/05/23 09:23:18;;;;;;;;;;;;;;;21.84;32.38;97553.47;5061680;28;1127;-79
2023/05/23 09:25:47;;;;;;;;;;;;;;;21.88;32.35;97552.56;5063480;28;1209;-79
2023/05/23 09:28:13;;;;;;;;;;;;;;;21.84;32.23;97556.28;5062240;28;1121;-79
2023/05/23 09:30:39;;;;;;;;;;;;;;;22.05;32.06;97551.13;5047019;28;1984;-79
2023/05/23 09:33:05;;;;;;;;;;;;;;;22.03;31.92;97550.81;5045347;28;1230;-80
2023/05/23 09:35:31;;;;;;;;;;;;;;;22.31;31.28;97546.97;5062735;28;1234;-78
2023/05/23 09:37:58;;;;;;;;;;;;;;;22.05;31.68;97548.28;5062340;28;1004;-79
2023/05/23 09:40:28;;;;;;;;;;;;;;;21.80;32.07;97549.94;5045703;28;1237;-79
2023/05/23 09:43:04;;;;;;;;;;;;;;;21.63;32.35;97553.41;5078235;28;1340;-79
2023/05/23 09:45:30;;;;;;;;;;;;;;;21.65;32.11;97546.03;5046183;28;1134;-79
2023/05/23 09:47:55;;;;;;;;;;;;;;;21.85;31.97;97542.91;5045131;28;1092;-78
2023/05/23 09:50:21;;;;;;;;;;;;;;;21.85;31.68;97542.91;5042324;28;1167;-79
2023/05/23 09:52:47;;;;;;;;;;;;;;;21.85;31.49;97537.25;5009123;28;1894;-79
2023/05/23 09:55:12;;;;;;;;;;;;;;;21.93;31.32;97546.31;5059637;28;1150;-79
2023/05/23 09:57:39;;;;;;;;;;;;;;;21.84;31.65;97547.78;5045930;28;994;-79
2023/05/23 10:00:05;;;;;;;;;;;;;;;21.60;32.24;97549.44;5028316;28;1324;-79
2023/05/23 10:02:40;;;;;;;;;;;;;;;21.85;31.46;97543.72;5021700;28;991;-79
2023/05/23 10:05:06;;;;;;;;;;;;;;;21.98;31.22;97542.91;5004450;28;1353;-79
2023/05/23 10:07:32;;;;;;;;;;;;;;;21.81;31.46;97543.06;5022503;28;929;-79
2023/05/23 10:10:00;;;;;;;;;;;;;;;21.56;32.01;97541.06;5005363;28;1194;-79
2023/05/23 10:12:28;;;;;;;;;;;;;;;21.78;31.72;97546.00;5005996;28;1965;-78
2023/05/23 10:14:54;;;;;;;;;;;;;;;21.95;31.05;97557.97;5003450;28;2152;-80
2023/05/23 10:17:29;;;;;;;;;;;;;;;21.88;31.03;97552.56;4987349;28;1246;-79
2023/05/23 10:20:01;;;;;;;;;;;;;;;21.89;31.21;97554.13;4985950;28;1017;-79
2023/05/23 10:22:26;;;;;;;;;;;;;;;21.97;30.86;97555.47;4986653;28;1006;-78
2023/05/23 10:24:52;;;;;;;;;;;;;;;21.90;30.82;97550.03;4984784;28;1193;-79
2023/05/23 10:27:18;;;;;;;;;;;;;;;22.17;30.72;97553.13;4986656;28;1274;-79
2023/05/23 10:29:44;;;;;;;;;;;;;;;21.59;31.56;97559.97;5005931;28;1177;-79
2023/05/23 10:32:09;;;;;;;;;;;;;;;21.84;30.89;97559.13;5042255;28;1983;-79
2023/05/23 10:35:01;;;;;;;;;;;;;;;21.84;30.95;97559.13;5096507;28;891;-84
2023/05/23 10:37:35;;;;;;;;;;;;;;;21.50;31.52;97561.91;5041641;28;998;-79
2023/05/23 10:40:11;;;;;;;;;;;;;;;21.89;30.64;97565.47;5024118;28;984;-79
2023/05/23 10:42:39;;;;;;;;;;;;;;;21.83;30.82;97570.91;5024801;28;1186;-79
2023/05/23 10:45:15;;;;;;;;;;;;;;;21.83;30.85;97587.91;5004205;28;1623;-80
2023/05/23 10:47:40;;;;;;;;;;;;;;;21.92;30.38;97590.06;5005247;28;1127;-78
2023/05/23 10:50:06;;;;;;;;;;;;;;;21.43;31.44;97596.13;5020405;28;966;-79
2023/05/23 10:52:37;;;;;;;;;;;;;;;21.78;30.46;97599.81;5021470;28;1910;-79
2023/05/23 10:55:08;;;;;;;;;;;;;;;21.93;30.14;97588.78;5004692;28;1127;-79
2023/05/23 10:57:33;;;;;;;;;;;;;;;22.06;29.97;97598.03;5004836;28;1265;-79
2023/05/23 10:59:59;;;;;;;;;;;;;;;21.89;30.17;97593.78;5004188;28;1178;-79
2023/05/23 11:02:25;;;;;;;;;;;;;;;21.85;30.14;97593.91;5022003;28;917;-79
2023/05/23 11:05:09;;;;;;;;;;;;;;;21.95;30.36;97591.94;5020683;28;1017;-79
2023/05/23 11:07:34;;;;;;;;;;;;;;;21.98;30.42;97585.38;5021297;28;897;-79
2023/05/23 11:10:15;;;;;;;;;;;;;;;22.51;30.78;97588.38;5020365;28;1358;-80
2023/05/23 11:12:41;;;;;;;;;;;;;;;22.96;31.28;97589.97;5021547;28;1903;-79
2023/05/23 11:15:16;;;;;;;;;;;;;;;22.86;31.88;97592.72;5026681;28;1100;-79
2023/05/23 11:17:49;;;;;;;;;;;;;;;22.51;33.04;97582.72;5082439;28;1216;-80
2023/05/23 11:20:15;;;;;;;;;;;;;;;22.37;32.92;97589.69;5064609;28;1227;-78
2023/05/23 11:22:42;;;;;;;;;;;;;;;22.24;32.73;97584.06;5065385;28;1012;-80
2023/05/23 11:25:09;;;;;;;;;;;;;;;22.06;32.88;97586.69;5064468;28;1471;-79
2023/05/23 11:27:36;;;;;;;;;;;;;;;21.88;33.25;97586.53;5064908;28;1094;-79
2023/05/23 11:30:03;;;;;;;;;;;;;;;21.65;33.40;97580.00;5081017;28;807;-80
2023/05/23 11:32:30;;;;;;;;;;;;;;;21.98;32.54;97591.84;5065504;28;1902;-78
2023/05/23 11:34:58;;;;;;;;;;;;;;;21.91;32.62;97579.94;5064111;28;1216;-79
2023/05/23 11:37:23;;;;;;;;;;;;;;;21.55;33.22;97581.97;5081770;28;964;-79
2023/05/23 11:39:49;;;;;;;;;;;;;;;22.06;32.22;97583.88;5064574;28;1203;-79
2023/05/23 11:42:14;;;;;;;;;;;;;;;21.98;32.63;97585.38;5065554;28;1225;-79
2023/05/23 11:44:40;;;;;;;;;;;;;;;22.28;31.77;97581.91;5079484;28;1140;-78
2023/05/23 11:47:06;;;;;;;;;;;;;;;21.97;32.28;97584.59;5064682;28;1045;-79
2023/05/23 11:49:36;;;;;;;;;;;;;;;21.94;32.28;97585.50;5063673;28;1118;-79
2023/05/23 11:52:02;;;;;;;;;;;;;;;21.94;32.13;97584.72;5064350;28;1953;-78
2023/05/23 11:54:28;;;;;;;;;;;;;;;21.99;31.92;97575.63;5062950;28;1318;-80
2023/05/23 11:56:53;;;;;;;;;;;;;;;21.79;31.97;97575.91;5063452;28;961;-78
2023/05/23 11:59:20;;;;;;;;;;;;;;;21.97;31.78;97578.13;5079095;28;1084;-79
2023/05/23 12:01:45;;;;;;;;;;;;;;;21.73;32.10;97574.91;5063967;28;1069;-79
2023/05/23 12:04:13;;;;;;;;;;;;;;;21.79;32.05;97578.75;5079307;28;1263;-79
2023/05/23 12:06:40;;;;;;;;;;;;;;;21.77;31.79;97572.75;5080613;28;1034;-78
2023/05/23 12:09:06;;;;;;;;;;;;;;;21.79;31.85;97570.25;5063058;28;1043;-79
2023/05/23 12:11:32;;;;;;;;;;;;;;;21.69;32.02;97569.34;5063108;28;1886;-80
2023/05/23 12:14:00;;;;;;;;;;;;;;;21.97;31.31;97564.78;5062069;28;885;-79
2023/05/23 12:16:26;;;;;;;;;;;;;;;22.01;31.24;97562.56;5052155;28;866;-79
2023/05/23 12:18:52;;;;;;;;;;;;;;;21.62;32.25;97552.63;5029448;28;1001;-79
2023/05/23 12:21:17;;;;;;;;;;;;;;;21.85;31.85;97560.69;5065277;28;939;-79
2023/05/23 12:23:43;;;;;;;;;;;;;;;21.93;31.36;97554.81;5080850;28;1178;-78
2023/05/23 12:26:11;;;;;;;;;;;;;;;21.90;31.40;97561.38;5066231;28;879;-79
2023/05/23 12:28:46;;;;;;;;;;;;;;;22.02;31.24;97555.69;5066799;28;950;-79
2023/05/23 12:31:16;;;;;;;;;;;;;;;21.77;31.84;97558.59;5069834;28;1898;-79
2023/05/23 12:33:44;;;;;;;;;;;;;;;21.70;31.74;97565.28;5067073;28;904;-79
2023/05/23 12:36:13;;;;;;;;;;;;;;;21.74;31.64;97560.28;5052202;28;920;-79
2023/05/23 12:38:39;;;;;;;;;;;;;;;21.64;31.78;97561.44;5067495;28;905;-79
2023/05/23 12:41:12;;;;;;;;;;;;;;;21.79;31.30;97554.03;5053037;28;1063;-79
2023/05/23 12:43:38;;;;;;;;;;;;;;;21.95;31.01;97555.13;5067189;28;864;-79
2023/05/23 12:46:05;;;;;;;;;;;;;;;21.97;30.86;97561.16;5051625;28;1329;-78
2023/05/23 12:48:30;;;;;;;;;;;;;;;21.59;31.58;97559.19;5050105;28;922;-79
2023/05/23 12:50:56;;;;;;;;;;;;;;;21.93;30.91;97563.31;5068513;28;1949;-79
2023/05/23 12:53:22;;;;;;;;;;;;;;;22.00;30.74;97554.53;5084147;28;911;-79
2023/05/23 12:55:47;;;;;;;;;;;;;;;21.95;31.01;97557.97;5063110;28;901;-79
2023/05/23 12:58:13;;;;;;;;;;;;;;;21.95;30.63;97564.41;5045699;28;982;-79
2023/05/23 13:00:38;;;;;;;;;;;;;;;21.89;30.61;97554.91;5063855;28;1017;-80